Time;durP1;ratioP1;P1;durP2;ratioP2;P2;SDS_P1;SDS_P2;PMS_P1;PMS_P2;Temp;Humidity;BMP_temperature;BMP_pressure;BME280_temperature;BME280_humidity;BME280_pressure;Samples;Min_cycle;Max_cycle;Signal;HPM_P1;HPM_P2
2023/10/16 00:01:06;;;;;;;5.30;2.70;;;;;;;;;;5010992;28;20217;-68
2023/10/16 00:03:31;;;;;;;4.97;2.90;;;;;;;;;;5011485;28;20203;-68
2023/10/16 00:05:57;;;;;;;5.60;2.73;;;;;;;;;;5010785;28;20695;-68
2023/10/16 00:08:23;;;;;;;4.93;2.97;;;;;;;;;;5012091;28;20802;-68
2023/10/16 00:10:55;;;;;;;7.00;2.60;;;;;;;;;;5012008;28;20198;-68
2023/10/16 00:13:26;;;;;;;6.23;3.23;;;;;;;;;;5010364;28;20194;-68
2023/10/16 00:15:51;;;;;;;6.07;2.73;;;;;;;;;;5008851;28;20236;-67
2023/10/16 00:18:18;;;;;;;7.77;3.43;;;;;;;;;;5009067;28;20607;-68
2023/10/16 00:20:43;;;;;;;4.70;3.20;;;;;;;;;;5010473;28;20199;-68
2023/10/16 00:23:11;;;;;;;4.93;3.10;;;;;;;;;;5011440;28;20210;-68
2023/10/16 00:25:38;;;;;;;7.13;3.23;;;;;;;;;;5013875;28;20179;-68
2023/10/16 00:28:05;;;;;;;6.17;2.50;;;;;;;;;;5011540;28;20186;-68
2023/10/16 00:30:31;;;;;;;5.30;2.93;;;;;;;;;;5009523;28;20674;-68
2023/10/16 00:32:56;;;;;;;4.50;3.00;;;;;;;;;;5011023;28;20198;-68
2023/10/16 00:35:22;;;;;;;4.63;3.30;;;;;;;;;;5007760;28;20712;-68
2023/10/16 00:37:49;;;;;;;5.33;2.63;;;;;;;;;;5013181;28;20183;-68
2023/10/16 00:40:26;;;;;;;4.53;2.80;;;;;;;;;;5007685;28;20213;-68
2023/10/16 00:42:52;;;;;;;6.13;3.00;;;;;;;;;;5007689;28;20228;-68
2023/10/16 00:45:19;;;;;;;6.47;3.40;;;;;;;;;;5009350;28;20187;-67
2023/10/16 00:47:45;;;;;;;6.37;2.90;;;;;;;;;;5010258;28;20178;-67
2023/10/16 00:50:12;;;;;;;4.30;3.17;;;;;;;;;;5010965;28;20277;-67
2023/10/16 00:52:37;;;;;;;3.40;2.63;;;;;;;;;;5008240;28;20191;-67
2023/10/16 00:55:03;;;;;;;3.60;2.90;;;;;;;;;;5010810;28;20194;-67
2023/10/16 00:57:28;;;;;;;4.57;2.83;;;;;;;;;;5011207;28;20272;-67
2023/10/16 00:59:54;;;;;;;4.07;3.10;;;;;;;;;;5011149;28;20183;-67
2023/10/16 01:02:26;;;;;;;6.17;3.03;;;;;;;;;;5010471;28;20211;-67
2023/10/16 01:04:52;;;;;;;3.87;2.50;;;;;;;;;;5011179;28;20194;-68
2023/10/16 01:07:19;;;;;;;5.60;3.70;;;;;;;;;;5007193;28;20179;-67
2023/10/16 01:09:46;;;;;;;4.00;2.73;;;;;;;;;;5010409;28;20179;-67
2023/10/16 01:12:11;;;;;;;6.93;3.50;;;;;;;;;;5014472;28;20211;-67
2023/10/16 01:14:37;;;;;;;9.43;3.00;;;;;;;;;;5007387;28;20222;-67
2023/10/16 01:17:03;;;;;;;7.33;3.27;;;;;;;;;;5011730;28;20277;-67
2023/10/16 01:19:29;;;;;;;3.80;2.73;;;;;;;;;;5009704;28;20290;-68
2023/10/16 01:21:54;;;;;;;7.63;3.23;;;;;;;;;;5014680;28;20230;-67
2023/10/16 01:24:19;;;;;;;5.57;3.70;;;;;;;;;;5008590;28;20266;-67
2023/10/16 01:26:44;;;;;;;5.80;3.50;;;;;;;;;;5011973;28;20170;-67
2023/10/16 01:29:10;;;;;;;7.57;3.33;;;;;;;;;;5008202;28;20178;-67
2023/10/16 01:31:36;;;;;;;5.13;3.97;;;;;;;;;;5008146;28;20526;-67
2023/10/16 01:34:02;;;;;;;5.57;3.60;;;;;;;;;;5008013;28;20186;-67
2023/10/16 01:36:28;;;;;;;4.27;3.20;;;;;;;;;;5007695;28;20298;-67
2023/10/16 01:38:53;;;;;;;4.60;2.87;;;;;;;;;;5009701;28;20707;-67
2023/10/16 01:41:18;;;;;;;7.00;3.37;;;;;;;;;;5014000;28;20278;-67
2023/10/16 01:43:44;;;;;;;4.47;3.90;;;;;;;;;;5013531;28;20182;-67
2023/10/16 01:46:13;;;;;;;4.60;3.57;;;;;;;;;;5015300;28;20250;-68
2023/10/16 01:48:42;;;;;;;4.73;3.63;;;;;;;;;;5013509;28;20179;-67
2023/10/16 01:51:10;;;;;;;6.53;3.40;;;;;;;;;;5012818;28;20222;-67
2023/10/16 01:53:36;;;;;;;4.20;3.10;;;;;;;;;;5012427;28;20536;-67
2023/10/16 01:56:12;;;;;;;11.03;3.47;;;;;;;;;;5011775;28;20194;-68
2023/10/16 01:58:37;;;;;;;7.03;2.80;;;;;;;;;;5016155;28;20175;-68
2023/10/16 02:01:03;;;;;;;4.90;3.67;;;;;;;;;;5017888;28;20203;-68
2023/10/16 02:03:29;;;;;;;4.73;3.47;;;;;;;;;;5022521;28;20205;-68
2023/10/16 02:05:54;;;;;;;4.13;3.17;;;;;;;;;;5024987;28;20175;-68
2023/10/16 02:08:20;;;;;;;5.10;2.97;;;;;;;;;;5022462;28;20174;-68
2023/10/16 02:10:46;;;;;;;5.30;3.20;;;;;;;;;;5015538;28;20344;-67
2023/10/16 02:13:11;;;;;;;6.90;2.33;;;;;;;;;;5019545;28;20616;-68
2023/10/16 02:15:37;;;;;;;5.60;2.90;;;;;;;;;;5017811;28;20187;-68
2023/10/16 02:18:06;;;;;;;4.53;2.80;;;;;;;;;;5020038;28;20778;-68
2023/10/16 02:20:35;;;;;;;4.47;2.40;;;;;;;;;;5019224;28;20241;-68
2023/10/16 02:23:00;;;;;;;6.00;1.87;;;;;;;;;;5016671;28;20195;-68
2023/10/16 02:25:27;;;;;;;7.30;1.90;;;;;;;;;;5013609;28;20183;-67
2023/10/16 02:27:54;;;;;;;3.40;2.30;;;;;;;;;;5012719;28;20190;-68
2023/10/16 02:32:49;;;;;;;6.40;2.30;;;;;;;;;;5013534;28;20270;-68
2023/10/16 02:35:14;;;;;;;4.73;2.03;;;;;;;;;;5013113;28;20245;-68
2023/10/16 02:37:40;;;;;;;3.53;2.10;;;;;;;;;;5015907;28;20650;-68
2023/10/16 02:40:10;;;;;;;4.00;1.77;;;;;;;;;;5011527;28;20205;-68
2023/10/16 02:42:38;;;;;;;2.57;2.10;;;;;;;;;;5012147;28;20245;-68
2023/10/16 02:45:04;;;;;;;7.37;2.33;;;;;;;;;;5014581;28;20671;-68
2023/10/16 02:47:30;;;;;;;2.50;1.60;;;;;;;;;;5015476;28;20257;-68
2023/10/16 02:49:56;;;;;;;4.03;1.57;;;;;;;;;;5012324;28;20310;-68
2023/10/16 02:52:21;;;;;;;4.40;1.67;;;;;;;;;;5012956;28;20257;-68
2023/10/16 02:54:46;;;;;;;5.87;2.23;;;;;;;;;;5011810;28;20178;-68
2023/10/16 02:57:12;;;;;;;3.93;1.20;;;;;;;;;;5011413;28;20179;-68
2023/10/16 02:59:43;;;;;;;2.77;2.20;;;;;;;;;;5012862;28;20183;-68
2023/10/16 03:02:17;;;;;;;3.33;2.03;;;;;;;;;;5001337;28;20213;-66
2023/10/16 03:04:43;;;;;;;3.70;1.77;;;;;;;;;;5010644;28;20192;-67
2023/10/16 03:07:09;;;;;;;3.23;1.70;;;;;;;;;;5008818;28;20175;-67
2023/10/16 03:09:35;;;;;;;1.57;1.43;;;;;;;;;;5011545;28;20171;-66
2023/10/16 03:12:10;;;;;;;6.63;2.03;;;;;;;;;;5011482;28;20289;-67
2023/10/16 03:14:45;;;;;;;3.07;1.87;;;;;;;;;;5014094;28;20279;-67
2023/10/16 03:17:21;;;;;;;3.17;1.60;;;;;;;;;;5012090;28;20557;-68
2023/10/16 03:19:48;;;;;;;3.40;1.53;;;;;;;;;;5010062;28;20674;-67
2023/10/16 03:22:14;;;;;;;2.80;1.77;;;;;;;;;;5011686;28;20199;-67
2023/10/16 03:24:40;;;;;;;5.83;1.87;;;;;;;;;;5010302;28;20190;-68
2023/10/16 03:27:08;;;;;;;2.17;1.70;;;;;;;;;;5010174;28;20285;-68
2023/10/16 03:29:34;;;;;;;3.23;1.70;;;;;;;;;;5012468;28;20177;-68
2023/10/16 03:31:59;;;;;;;2.27;1.90;;;;;;;;;;5011343;28;20215;-68
2023/10/16 03:34:24;;;;;;;3.47;1.87;;;;;;;;;;5009877;28;20185;-68
2023/10/16 03:36:54;;;;;;;4.93;1.80;;;;;;;;;;5011032;28;20585;-68
2023/10/16 03:39:19;;;;;;;3.23;1.70;;;;;;;;;;5012797;28;20177;-68
2023/10/16 03:41:45;;;;;;;3.40;1.83;;;;;;;;;;5007660;28;20575;-67
2023/10/16 03:44:18;;;;;;;2.50;1.73;;;;;;;;;;5012380;28;20183;-69
2023/10/16 03:46:44;;;;;;;2.30;1.60;;;;;;;;;;5012613;28;20193;-67
2023/10/16 03:49:11;;;;;;;3.57;1.30;;;;;;;;;;5012526;28;20171;-67
2023/10/16 03:51:38;;;;;;;3.03;2.03;;;;;;;;;;5011145;28;20229;-67
2023/10/16 03:54:03;;;;;;;2.43;1.73;;;;;;;;;;5011635;28;20237;-67
2023/10/16 03:56:30;;;;;;;4.57;2.43;;;;;;;;;;5011816;28;20167;-68
2023/10/16 03:58:57;;;;;;;3.97;2.23;;;;;;;;;;5009014;28;20179;-68
2023/10/16 04:01:27;;;;;;;5.17;2.47;;;;;;;;;;5010544;28;20191;-67
2023/10/16 04:03:58;;;;;;;4.93;3.07;;;;;;;;;;5009864;28;20195;-67
2023/10/16 04:06:25;;;;;;;5.83;2.83;;;;;;;;;;5009242;28;20198;-67
2023/10/16 04:08:51;;;;;;;3.17;2.87;;;;;;;;;;5011860;28;20214;-67
2023/10/16 04:11:17;;;;;;;8.23;4.03;;;;;;;;;;5010441;28;20201;-67
2023/10/16 04:13:48;;;;;;;6.97;4.03;;;;;;;;;;5010803;28;20175;-67
2023/10/16 04:21:40;;;;;;;4.93;3.43;;;;;;;;;;5011338;28;20206;-67
2023/10/16 04:24:19;;;;;;;8.90;3.77;;;;;;;;;;5009772;28;20557;-67
2023/10/16 04:26:56;;;;;;;5.63;4.00;;;;;;;;;;5004070;28;20658;-67
2023/10/16 04:29:25;;;;;;;3.37;3.07;;;;;;;;;;5009260;28;20193;-67
2023/10/16 04:36:52;;;;;;;7.30;4.20;;;;;;;;;;5010587;28;20219;-67
2023/10/16 04:47:41;;;;;;;7.43;3.60;;;;;;;;;;5007721;28;20178;-67
2023/10/16 04:50:08;;;;;;;6.03;3.97;;;;;;;;;;5009541;28;20261;-67
2023/10/16 04:55:52;;;;;;;4.73;3.33;;;;;;;;;;5005257;28;20253;-68
2023/10/16 05:01:55;;;;;;;4.43;3.20;;;;;;;;;;5009495;28;20217;-68
2023/10/16 05:04:49;;;;;;;10.43;4.07;;;;;;;;;;4993102;28;20556;-66
2023/10/16 05:07:16;;;;;;;7.17;3.97;;;;;;;;;;5014889;28;20171;-66
2023/10/16 05:10:12;;;;;;;5.27;3.97;;;;;;;;;;5006516;28;20658;-67
2023/10/16 05:15:37;;;;;;;7.57;4.27;;;;;;;;;;5008980;28;20648;-67
2023/10/16 05:18:42;;;;;;;8.90;4.17;;;;;;;;;;5007014;28;20581;-67
2023/10/16 05:21:18;;;;;;;8.47;4.53;;;;;;;;;;5006533;28;20215;-67
2023/10/16 06:15:39;;;;;;;5.73;3.70;;;;;;;;;;5008194;28;20267;-67
2023/10/16 06:18:06;;;;;;;9.40;4.53;;;;;;;;;;5008530;28;20262;-67
2023/10/16 06:20:31;;;;;;;6.53;3.93;;;;;;;;;;5005273;28;20238;-67
2023/10/16 06:22:58;;;;;;;7.63;4.23;;;;;;;;;;5006093;28;20221;-67
2023/10/16 06:25:28;;;;;;;5.70;4.50;;;;;;;;;;5008086;28;20659;-67
2023/10/16 06:27:54;;;;;;;8.23;4.40;;;;;;;;;;5013195;28;20190;-67
2023/10/16 06:30:19;;;;;;;6.53;3.53;;;;;;;;;;5013258;28;20682;-67
2023/10/16 06:32:44;;;;;;;5.30;4.07;;;;;;;;;;5009550;28;20616;-67
2023/10/16 06:35:14;;;;;;;6.07;4.10;;;;;;;;;;5011450;28;20554;-67
2023/10/16 06:37:41;;;;;;;6.37;3.80;;;;;;;;;;5009552;28;20179;-67
2023/10/16 06:40:16;;;;;;;6.87;3.90;;;;;;;;;;5008673;28;20777;-67
2023/10/16 06:42:45;;;;;;;5.63;4.27;;;;;;;;;;5003258;28;20229;-67
2023/10/16 06:45:19;;;;;;;6.50;3.80;;;;;;;;;;5008730;28;20175;-67
2023/10/16 06:47:47;;;;;;;5.77;3.40;;;;;;;;;;5008008;28;20209;-67
2023/10/16 06:52:51;;;;;;;11.37;3.37;;;;;;;;;;5005887;28;20192;-67
2023/10/16 06:55:16;;;;;;;6.53;3.73;;;;;;;;;;5007504;28;20187;-67
2023/10/16 06:57:42;;;;;;;7.57;3.40;;;;;;;;;;5009273;28;20677;-67
2023/10/16 07:00:09;;;;;;;4.90;2.70;;;;;;;;;;5004995;28;20204;-67
2023/10/16 07:02:36;;;;;;;5.40;2.37;;;;;;;;;;5009182;28;20210;-67
2023/10/16 07:05:05;;;;;;;5.27;2.53;;;;;;;;;;5011840;28;20175;-67
2023/10/16 07:07:30;;;;;;;7.70;3.27;;;;;;;;;;5007695;28;20661;-67
2023/10/16 07:09:55;;;;;;;5.53;2.83;;;;;;;;;;5010587;28;20175;-67
2023/10/16 07:12:22;;;;;;;5.77;2.70;;;;;;;;;;5013373;28;20178;-67
2023/10/16 07:14:57;;;;;;;6.87;3.13;;;;;;;;;;5010856;28;20194;-67
2023/10/16 07:17:24;;;;;;;6.20;3.30;;;;;;;;;;5010414;28;20563;-67
2023/10/16 07:19:50;;;;;;;3.90;2.57;;;;;;;;;;5012169;28;20179;-67
2023/10/16 07:22:16;;;;;;;13.13;2.73;;;;;;;;;;5010208;28;20202;-67
2023/10/16 07:24:41;;;;;;;4.10;2.63;;;;;;;;;;5012372;28;20185;-67
2023/10/16 07:27:12;;;;;;;5.70;2.50;;;;;;;;;;5011851;28;20182;-67
2023/10/16 07:29:43;;;;;;;11.70;3.57;;;;;;;;;;5007260;28;20709;-67
2023/10/16 07:32:08;;;;;;;4.63;2.37;;;;;;;;;;5006484;28;20193;-67
2023/10/16 07:34:34;;;;;;;5.97;3.43;;;;;;;;;;5008625;28;20265;-67
2023/10/16 07:37:00;;;;;;;3.53;2.70;;;;;;;;;;5009104;28;20186;-67
2023/10/16 07:39:28;;;;;;;4.90;3.10;;;;;;;;;;5013398;28;20233;-67
2023/10/16 07:41:53;;;;;;;8.13;3.30;;;;;;;;;;5010522;28;20237;-67
2023/10/16 07:44:18;;;;;;;5.97;2.60;;;;;;;;;;5010440;28;20642;-67
2023/10/16 07:46:44;;;;;;;4.50;2.30;;;;;;;;;;5006125;28;20190;-67
2023/10/16 07:49:09;;;;;;;5.20;2.10;;;;;;;;;;5007203;28;20629;-67
2023/10/16 07:51:35;;;;;;;3.40;2.40;;;;;;;;;;5011148;28;20697;-67
2023/10/16 07:54:00;;;;;;;5.17;2.17;;;;;;;;;;5011107;28;20478;-67
2023/10/16 07:56:28;;;;;;;2.50;1.93;;;;;;;;;;5009416;28;20179;-69
2023/10/16 07:59:06;;;;;;;20.17;2.88;;;;;;;;;;5012553;28;20182;-67
2023/10/16 08:01:48;;;;;;;3.83;1.80;;;;;;;;;;5010146;28;20198;-68
2023/10/16 08:06:52;;;;;;;2.47;1.90;;;;;;;;;;5010032;28;20193;-68
2023/10/16 08:09:48;;;;;;;2.85;1.70;;;;;;;;;;5011314;28;20190;-68
2023/10/16 08:12:51;;;;;;;4.53;2.05;;;;;;;;;;5010516;28;20187;-69
2023/10/16 08:14:54;;;;;;;3.67;1.92;;;;;;;;;;5001471;28;20234;-68
2023/10/16 08:17:23;;;;;;;3.85;2.47;;;;;;;;;;5014371;28;21311;-68
2023/10/16 08:19:49;;;;;;;4.25;1.50;;;;;;;;;;5015155;28;20187;-68
2023/10/16 08:22:14;;;;;;;1.95;1.75;;;;;;;;;;5015409;28;20348;-68
2023/10/16 08:24:57;;;;;;;4.30;1.45;;;;;;;;;;5015007;28;20199;-69
2023/10/16 08:27:40;;;;;;;3.10;1.50;;;;;;;;;;5021492;28;20210;-68
2023/10/16 08:30:18;;;;;;;1.50;1.27;;;;;;;;;;5014949;28;20190;-68
2023/10/16 08:32:53;;;;;;;2.47;1.63;;;;;;;;;;5010180;28;20187;-67
2023/10/16 08:35:19;;;;;;;4.40;1.30;;;;;;;;;;5014280;28;20201;-67
2023/10/16 08:37:45;;;;;;;1.95;1.23;;;;;;;;;;5014333;28;20174;-67
2023/10/16 08:40:24;;;;;;;2.88;1.27;;;;;;;;;;5012760;28;20209;-66
2023/10/16 08:43:00;;;;;;;2.13;1.35;;;;;;;;;;5012814;28;20198;-67
2023/10/16 08:45:39;;;;;;;2.58;1.50;;;;;;;;;;5010193;28;20713;-68
2023/10/16 08:48:05;;;;;;;2.90;1.05;;;;;;;;;;5009674;28;20665;-67
2023/10/16 08:50:41;;;;;;;4.68;1.40;;;;;;;;;;5002542;28;20200;-67
2023/10/16 08:53:09;;;;;;;1.20;1.02;;;;;;;;;;5023178;28;20186;-67
2023/10/16 08:55:35;;;;;;;2.95;1.52;;;;;;;;;;5005876;28;20178;-68
2023/10/16 08:58:04;;;;;;;3.67;1.80;;;;;;;;;;5007754;28;20241;-67
2023/10/16 09:00:30;;;;;;;2.97;1.60;;;;;;;;;;5010608;28;20237;-66
2023/10/16 09:02:56;;;;;;;5.00;1.15;;;;;;;;;;4995154;28;20199;-67
2023/10/16 09:05:21;;;;;;;5.05;1.75;;;;;;;;;;5004907;28;20539;-67
2023/10/16 09:07:48;;;;;;;2.70;1.58;;;;;;;;;;5012267;28;20171;-67
2023/10/16 09:10:15;;;;;;;2.42;0.95;;;;;;;;;;5006228;28;20212;-67
2023/10/16 09:12:45;;;;;;;1.45;0.85;;;;;;;;;;5011069;28;20213;-67
2023/10/16 09:15:15;;;;;;;1.75;0.65;;;;;;;;;;5010679;28;20638;-67
2023/10/16 09:17:40;;;;;;;2.40;0.70;;;;;;;;;;5011731;28;20178;-67
2023/10/16 09:20:17;;;;;;;1.23;0.50;;;;;;;;;;5009920;28;20202;-67
2023/10/16 09:22:45;;;;;;;3.92;0.88;;;;;;;;;;5009409;28;20301;-67
2023/10/16 09:25:15;;;;;;;1.67;0.70;;;;;;;;;;5010369;28;20173;-67
2023/10/16 09:27:42;;;;;;;3.08;0.85;;;;;;;;;;5010759;28;20563;-67
2023/10/16 09:30:14;;;;;;;1.52;0.50;;;;;;;;;;5010453;28;20190;-67
2023/10/16 09:32:40;;;;;;;1.50;0.57;;;;;;;;;;5005389;28;20273;-67
2023/10/16 09:35:06;;;;;;;0.77;0.30;;;;;;;;;;5009475;28;20270;-67
2023/10/16 09:37:35;;;;;;;3.80;1.38;;;;;;;;;;5009024;28;20178;-67
2023/10/16 09:40:06;;;;;;;2.17;0.65;;;;;;;;;;5009947;28;20198;-68
2023/10/16 09:42:34;;;;;;;1.73;0.70;;;;;;;;;;4998846;28;20298;-68
2023/10/16 09:44:59;;;;;;;1.38;0.60;;;;;;;;;;5009238;28;20187;-67
2023/10/16 09:47:28;;;;;;;0.57;0.40;;;;;;;;;;5010343;28;20178;-68
2023/10/16 09:49:54;;;;;;;2.05;0.65;;;;;;;;;;5008061;28;20201;-68
2023/10/16 09:52:20;;;;;;;3.45;0.30;;;;;;;;;;5009240;28;20649;-68
2023/10/16 09:54:50;;;;;;;0.75;0.32;;;;;;;;;;5011376;28;20270;-68
2023/10/16 09:57:18;;;;;;;0.73;0.47;;;;;;;;;;5020657;28;20187;-68
2023/10/16 09:59:43;;;;;;;5.55;0.70;;;;;;;;;;5007511;28;20642;-68
2023/10/16 10:02:16;;;;;;;1.33;0.60;;;;;;;;;;5014428;28;20210;-68
2023/10/16 10:04:45;;;;;;;4.25;0.90;;;;;;;;;;5011589;28;20194;-68
2023/10/16 10:07:12;;;;;;;1.52;0.70;;;;;;;;;;5013518;28;20178;-68
2023/10/16 10:09:44;;;;;;;1.02;0.63;;;;;;;;;;5011190;28;20175;-68
2023/10/16 10:12:22;;;;;;;3.45;0.85;;;;;;;;;;5008376;28;20178;-68
2023/10/16 10:15:01;;;;;;;1.67;0.93;;;;;;;;;;5012603;28;20650;-67
2023/10/16 10:17:26;;;;;;;0.55;0.43;;;;;;;;;;5010815;28;20450;-68
2023/10/16 10:19:55;;;;;;;0.85;0.30;;;;;;;;;;5012380;28;20317;-67
2023/10/16 10:22:27;;;;;;;1.58;0.73;;;;;;;;;;5012302;28;20218;-67
2023/10/16 10:25:17;;;;;;;1.00;0.50;;;;;;;;;;5011688;28;20183;-67
2023/10/16 10:27:43;;;;;;;3.78;0.93;;;;;;;;;;5009492;28;20642;-67
2023/10/16 10:30:25;;;;;;;4.28;0.60;;;;;;;;;;5015279;28;20214;-67
2023/10/16 10:32:52;;;;;;;1.70;0.47;;;;;;;;;;5010139;28;20273;-67
2023/10/16 10:35:28;;;;;;;1.98;0.45;;;;;;;;;;5009078;28;20237;-67
2023/10/16 10:38:07;;;;;;;2.33;0.68;;;;;;;;;;5005252;28;20183;-67
2023/10/16 10:40:35;;;;;;;1.33;0.55;;;;;;;;;;5013516;28;20669;-68
2023/10/16 10:43:04;;;;;;;2.30;0.60;;;;;;;;;;5013320;28;20286;-67
2023/10/16 10:45:39;;;;;;;1.05;0.80;;;;;;;;;;5011336;28;20177;-68
2023/10/16 10:48:11;;;;;;;2.10;0.60;;;;;;;;;;5009258;28;20179;-67
2023/10/16 10:50:40;;;;;;;2.60;0.60;;;;;;;;;;5011343;28;20541;-67
2023/10/16 10:53:15;;;;;;;0.98;0.40;;;;;;;;;;5011787;28;20260;-69
2023/10/16 10:55:52;;;;;;;3.85;0.88;;;;;;;;;;5008325;28;20174;-68
2023/10/16 10:58:20;;;;;;;1.83;0.60;;;;;;;;;;5010932;28;20366;-67
2023/10/16 11:00:50;;;;;;;3.78;0.88;;;;;;;;;;5012001;28;20195;-67
2023/10/16 11:03:32;;;;;;;0.68;0.35;;;;;;;;;;5013032;28;20218;-67
2023/10/16 11:05:57;;;;;;;0.65;0.50;;;;;;;;;;5005998;28;20183;-67
2023/10/16 11:08:26;;;;;;;2.70;0.70;;;;;;;;;;5011924;28;20183;-68
2023/10/16 11:10:51;;;;;;;0.73;0.47;;;;;;;;;;5008855;28;20249;-67
2023/10/16 11:13:21;;;;;;;1.10;0.35;;;;;;;;;;5011939;28;20179;-68
2023/10/16 11:15:46;;;;;;;0.73;0.68;;;;;;;;;;5010104;28;20175;-67
2023/10/16 11:18:20;;;;;;;1.80;0.38;;;;;;;;;;5009455;28;20191;-67
2023/10/16 11:20:54;;;;;;;2.97;0.50;;;;;;;;;;5012592;28;20581;-68
2023/10/16 11:23:21;;;;;;;4.90;0.77;;;;;;;;;;5009415;28;20214;-67
2023/10/16 11:25:50;;;;;;;5.10;0.63;;;;;;;;;;5016325;28;20704;-67
2023/10/16 11:28:20;;;;;;;1.83;0.30;;;;;;;;;;5013197;28;20178;-67
2023/10/16 11:30:45;;;;;;;3.28;0.47;;;;;;;;;;5005623;28;20704;-66
2023/10/16 11:33:12;;;;;;;2.63;0.30;;;;;;;;;;5008138;28;20183;-67
2023/10/16 11:35:42;;;;;;;1.95;0.55;;;;;;;;;;5014947;28;20559;-66
2023/10/16 11:38:28;;;;;;;2.72;0.40;;;;;;;;;;5009936;28;20185;-66
2023/10/16 11:40:53;;;;;;;4.78;0.68;;;;;;;;;;5010086;28;20492;-67
2023/10/16 11:43:19;;;;;;;1.52;0.30;;;;;;;;;;5009523;28;20202;-66
2023/10/16 11:45:53;;;;;;;0.43;0.30;;;;;;;;;;5008474;28;20179;-67
2023/10/16 11:48:42;;;;;;;1.48;0.40;;;;;;;;;;5008310;28;20241;-66
2023/10/16 11:51:15;;;;;;;0.75;0.50;;;;;;;;;;5008070;28;20199;-67
2023/10/16 11:53:40;;;;;;;1.65;0.50;;;;;;;;;;5009753;28;20178;-68
2023/10/16 11:56:08;;;;;;;1.08;0.30;;;;;;;;;;5010882;28;20760;-67
2023/10/16 11:58:33;;;;;;;1.23;0.70;;;;;;;;;;5012175;28;20211;-67
2023/10/16 12:01:08;;;;;;;1.00;0.32;;;;;;;;;;5010869;28;20203;-67
2023/10/16 12:03:34;;;;;;;3.60;0.40;;;;;;;;;;5011292;28;20209;-67
2023/10/16 12:05:59;;;;;;;1.55;0.52;;;;;;;;;;5005898;28;20249;-66
2023/10/16 12:08:24;;;;;;;4.30;0.50;;;;;;;;;;5007200;28;20175;-66
2023/10/16 12:10:50;;;;;;;3.13;0.32;;;;;;;;;;5002707;28;20286;-67
2023/10/16 12:13:15;;;;;;;1.85;0.40;;;;;;;;;;5006265;28;20194;-67
2023/10/16 12:15:43;;;;;;;1.73;0.28;;;;;;;;;;5006527;28;20191;-65
2023/10/16 12:18:09;;;;;;;1.05;0.40;;;;;;;;;;5009586;28;20579;-67
2023/10/16 12:20:37;;;;;;;1.98;0.40;;;;;;;;;;5008739;28;20207;-67
2023/10/16 12:23:03;;;;;;;1.02;0.38;;;;;;;;;;5007821;28;20215;-67
2023/10/16 12:25:29;;;;;;;1.08;0.45;;;;;;;;;;5008754;28;20179;-67
2023/10/16 12:27:54;;;;;;;2.58;0.80;;;;;;;;;;5006327;28;20183;-66
2023/10/16 12:30:19;;;;;;;0.75;0.40;;;;;;;;;;5008454;28;20651;-66
2023/10/16 12:32:45;;;;;;;0.73;0.25;;;;;;;;;;5009945;28;20721;-66
2023/10/16 12:35:11;;;;;;;1.10;0.30;;;;;;;;;;5006771;28;20698;-66
2023/10/16 12:37:37;;;;;;;1.00;0.40;;;;;;;;;;5008868;28;20183;-66
2023/10/16 12:40:24;;;;;;;3.60;0.80;;;;;;;;;;5004329;28;20215;-66
2023/10/16 12:42:47;;;;;;;0.68;0.40;;;;;;;;;;5008839;28;20230;-66
2023/10/16 12:45:13;;;;;;;0.85;0.52;;;;;;;;;;5010262;28;20654;-66
2023/10/16 12:47:38;;;;;;;2.65;0.55;;;;;;;;;;5008606;28;20198;-67
2023/10/16 12:50:04;;;;;;;4.68;0.60;;;;;;;;;;5006692;28;20299;-66
2023/10/16 12:52:29;;;;;;;1.63;0.50;;;;;;;;;;5014294;28;20191;-67
2023/10/16 12:54:56;;;;;;;1.27;0.45;;;;;;;;;;5006823;28;20190;-66
2023/10/16 12:57:21;;;;;;;1.50;0.40;;;;;;;;;;5007099;28;20616;-66
2023/10/16 12:59:46;;;;;;;6.20;0.75;;;;;;;;;;4999620;28;20229;-66
2023/10/16 13:02:11;;;;;;;1.50;0.80;;;;;;;;;;5002794;28;20314;-67
2023/10/16 13:04:37;;;;;;;1.50;0.43;;;;;;;;;;5006568;28;20417;-67
2023/10/16 13:07:02;;;;;;;0.73;0.30;;;;;;;;;;5008076;28;20183;-66
2023/10/16 13:09:30;;;;;;;1.17;0.63;;;;;;;;;;5007064;28;20171;-66
2023/10/16 13:11:56;;;;;;;8.68;0.88;;;;;;;;;;5009352;28;20198;-67
2023/10/16 13:14:21;;;;;;;2.88;0.60;;;;;;;;;;5010066;28;20567;-66
2023/10/16 13:16:57;;;;;;;4.85;0.80;;;;;;;;;;5009219;28;20610;-66
2023/10/16 13:19:22;;;;;;;1.20;0.25;;;;;;;;;;5009660;28;20170;-67
2023/10/16 13:21:51;;;;;;;6.70;0.40;;;;;;;;;;5007958;28;20708;-66
2023/10/16 13:24:19;;;;;;;2.58;0.50;;;;;;;;;;5007226;28;20175;-65
2023/10/16 13:26:47;;;;;;;1.55;0.30;;;;;;;;;;5000156;28;20209;-66
2023/10/16 13:29:13;;;;;;;1.25;0.40;;;;;;;;;;5005555;28;20210;-67
2023/10/16 13:31:45;;;;;;;3.75;0.60;;;;;;;;;;4970770;28;1084001;-67
2023/10/16 13:34:13;;;;;;;1.73;0.50;;;;;;;;;;5011503;28;20178;-66
2023/10/16 13:36:56;;;;;;;1.70;0.30;;;;;;;;;;5012679;28;20179;-66
2023/10/16 13:39:24;;;;;;;2.17;0.70;;;;;;;;;;5010192;28;20191;-67
2023/10/16 13:41:53;;;;;;;0.68;0.40;;;;;;;;;;5010432;28;20202;-67
2023/10/16 13:44:19;;;;;;;1.13;0.32;;;;;;;;;;5008804;28;20268;-67
2023/10/16 13:46:45;;;;;;;2.28;0.50;;;;;;;;;;5012419;28;20185;-67
2023/10/16 13:49:14;;;;;;;1.50;0.65;;;;;;;;;;5006552;28;20175;-67
2023/10/16 13:51:39;;;;;;;2.25;0.40;;;;;;;;;;5012627;28;20233;-67
2023/10/16 13:54:11;;;;;;;2.35;0.60;;;;;;;;;;5014106;28;20581;-66
2023/10/16 13:56:36;;;;;;;1.70;0.93;;;;;;;;;;5014192;28;20253;-67
2023/10/16 13:59:03;;;;;;;1.33;0.60;;;;;;;;;;5012222;28;20896;-67
2023/10/16 14:01:30;;;;;;;2.10;0.45;;;;;;;;;;5009096;28;20376;-66
2023/10/16 14:03:58;;;;;;;2.15;0.47;;;;;;;;;;5012831;28;20242;-67
2023/10/16 14:06:24;;;;;;;6.43;0.70;;;;;;;;;;5013683;28;20170;-66
2023/10/16 14:08:49;;;;;;;2.25;0.50;;;;;;;;;;5010782;28;20179;-66
2023/10/16 14:11:15;;;;;;;1.58;0.75;;;;;;;;;;5006483;28;20199;-66
2023/10/16 14:13:40;;;;;;;1.80;0.60;;;;;;;;;;5008685;28;20175;-66
2023/10/16 14:16:17;;;;;;;4.50;0.50;;;;;;;;;;5009250;28;20676;-66
2023/10/16 14:18:43;;;;;;;7.53;0.80;;;;;;;;;;5012745;28;20218;-67
2023/10/16 14:21:10;;;;;;;2.05;0.50;;;;;;;;;;5013534;28;20253;-66
2023/10/16 14:23:38;;;;;;;1.80;0.52;;;;;;;;;;5010824;28;20207;-67
2023/10/16 14:26:10;;;;;;;1.30;0.50;;;;;;;;;;5008032;28;20678;-66
2023/10/16 14:28:44;;;;;;;1.33;0.40;;;;;;;;;;5013699;28;20257;-67
2023/10/16 14:31:09;;;;;;;1.45;0.43;;;;;;;;;;5010589;28;20211;-68
2023/10/16 14:33:36;;;;;;;3.70;0.60;;;;;;;;;;5011266;28;20186;-68
2023/10/16 14:36:05;;;;;;;1.23;0.38;;;;;;;;;;5012258;28;20178;-68
2023/10/16 14:38:31;;;;;;;0.82;0.30;;;;;;;;;;5009112;28;20183;-66
2023/10/16 14:41:02;;;;;;;2.45;0.43;;;;;;;;;;5011565;28;20214;-67
2023/10/16 14:43:27;;;;;;;1.45;0.40;;;;;;;;;;5014282;28;20276;-67
2023/10/16 14:45:54;;;;;;;1.60;0.70;;;;;;;;;;5012886;28;20710;-67
2023/10/16 14:48:19;;;;;;;0.98;0.70;;;;;;;;;;5013571;28;20597;-67
2023/10/16 14:50:45;;;;;;;2.53;0.50;;;;;;;;;;5011594;28;20195;-67
2023/10/16 14:53:10;;;;;;;1.45;0.43;;;;;;;;;;5013129;28;20194;-67
2023/10/16 14:55:36;;;;;;;3.35;0.70;;;;;;;;;;5005351;28;20183;-67
2023/10/16 14:58:02;;;;;;;3.13;0.60;;;;;;;;;;5006754;28;20179;-67
2023/10/16 15:00:31;;;;;;;2.08;0.38;;;;;;;;;;5006426;28;20253;-67
2023/10/16 15:02:57;;;;;;;1.30;0.55;;;;;;;;;;5007982;28;20195;-66
2023/10/16 15:05:24;;;;;;;2.28;0.60;;;;;;;;;;5006837;28;20598;-67
2023/10/16 15:07:49;;;;;;;3.40;1.10;;;;;;;;;;5000360;28;20176;-67
2023/10/16 15:10:14;;;;;;;2.17;0.80;;;;;;;;;;5010303;28;20270;-68
2023/10/16 15:12:40;;;;;;;0.55;0.50;;;;;;;;;;5012007;28;20724;-67
2023/10/16 15:15:08;;;;;;;2.83;0.73;;;;;;;;;;5011202;28;20733;-68
2023/10/16 15:17:35;;;;;;;2.10;0.65;;;;;;;;;;5008870;28;20179;-67
2023/10/16 15:20:03;;;;;;;3.45;0.75;;;;;;;;;;5007670;28;20226;-68
2023/10/16 15:22:29;;;;;;;2.05;0.70;;;;;;;;;;5010733;28;20302;-67
2023/10/16 15:24:54;;;;;;;2.10;0.63;;;;;;;;;;5011222;28;20233;-67
2023/10/16 15:27:19;;;;;;;1.65;0.70;;;;;;;;;;5012664;28;20670;-67
2023/10/16 15:29:45;;;;;;;2.25;0.52;;;;;;;;;;5010659;28;20182;-68
2023/10/16 15:32:10;;;;;;;4.00;0.70;;;;;;;;;;5012510;28;20187;-67
2023/10/16 15:34:35;;;;;;;3.55;1.17;;;;;;;;;;5009411;28;20183;-67
2023/10/16 15:37:00;;;;;;;2.40;0.63;;;;;;;;;;5008835;28;20167;-67
2023/10/16 15:39:27;;;;;;;3.35;0.80;;;;;;;;;;5011137;28;20171;-67
2023/10/16 15:41:52;;;;;;;0.70;0.50;;;;;;;;;;5011059;28;20202;-68
2023/10/16 15:44:21;;;;;;;1.55;0.90;;;;;;;;;;5010478;28;20539;-67
2023/10/16 15:46:48;;;;;;;2.33;1.20;;;;;;;;;;5005984;28;20171;-67
2023/10/16 15:49:14;;;;;;;4.75;0.90;;;;;;;;;;5008504;28;20190;-68
2023/10/16 15:51:40;;;;;;;1.85;1.13;;;;;;;;;;5007861;28;20705;-67
2023/10/16 15:54:05;;;;;;;2.22;1.13;;;;;;;;;;5007256;28;20734;-67
2023/10/16 15:56:31;;;;;;;1.95;0.55;;;;;;;;;;5011288;28;20262;-68
2023/10/16 15:58:57;;;;;;;2.92;0.85;;;;;;;;;;5012756;28;20663;-68
2023/10/16 16:01:25;;;;;;;6.25;1.20;;;;;;;;;;5007272;28;20202;-68
2023/10/16 16:03:50;;;;;;;2.38;1.30;;;;;;;;;;5006196;28;20210;-68
2023/10/16 16:06:15;;;;;;;1.58;0.60;;;;;;;;;;5010453;28;20167;-68
2023/10/16 16:08:41;;;;;;;1.42;0.93;;;;;;;;;;5010408;28;20269;-68
2023/10/16 16:11:13;;;;;;;3.03;0.80;;;;;;;;;;5016559;28;20213;-67
2023/10/16 16:13:39;;;;;;;1.45;1.05;;;;;;;;;;5018400;28;20175;-67
2023/10/16 16:16:05;;;;;;;3.50;1.48;;;;;;;;;;5016584;28;20179;-68
2023/10/16 16:18:30;;;;;;;2.80;1.20;;;;;;;;;;5019348;28;20175;-68